Air Park, Nebraska
Current Conditions -  °F | °C
As of 4:54 AM on Friday 24 Oct 2014 (Local Time) from KLNK Reporting Station
Haze Haze  
Wind Chill: 16°   Ceiling: Unl
Heat Index: 16°   Visibility: 6mi
Dew Point: 14°   Wind: 12mph
Humidity: 90%   Direction: 200°SSW
Pressure: 29.97"   Gusts: NA
Location:  40.8731°N, 96.8015°W
Report Text: KLNK 240954Z AUTO 20010KT 6SM BR CLR 16/14 A2997 RMK AO2 SLP142 T01610144
Loading
Personal Weather Stations






























Interactive Weather Map
Tropical Storm Tracking
New forecast layout! Learn more

10-Day Weather Forecast

Advertisements
Track Severe Weather on mobile